sensor_id;sensor_type;location;lat;lon;timestamp;P1;durP1;ratioP1;P2;durP2;ratioP2
22711;SDS011;11523;50.390;8.072;2022-11-25T04:55:04;14.90;;;7.70;;
22711;SDS011;11523;50.390;8.072;2022-11-25T04:57:37;17.00;;;8.85;;
22711;SDS011;11523;50.390;8.072;2022-11-25T05:00:03;14.77;;;8.00;;
22711;SDS011;11523;50.390;8.072;2022-11-25T05:02:29;11.57;;;7.88;;
22711;SDS011;11523;50.390;8.072;2022-11-25T05:04:56;15.35;;;7.95;;
22711;SDS011;11523;50.390;8.072;2022-11-25T05:07:23;15.32;;;8.10;;
22711;SDS011;11523;50.390;8.072;2022-11-25T05:09:49;13.77;;;8.25;;
22711;SDS011;11523;50.390;8.072;2022-11-25T05:12:16;15.68;;;8.73;;
22711;SDS011;11523;50.390;8.072;2022-11-25T05:14:43;14.85;;;8.15;;
22711;SDS011;11523;50.390;8.072;2022-11-25T05:17:12;13.88;;;9.35;;
22711;SDS011;11523;50.390;8.072;2022-11-25T05:19:38;12.05;;;8.98;;
22711;SDS011;11523;50.390;8.072;2022-11-25T05:22:04;14.52;;;8.45;;
22711;SDS011;11523;50.390;8.072;2022-11-25T05:24:30;15.98;;;8.65;;
22711;SDS011;11523;50.390;8.072;2022-11-25T05:26:56;14.48;;;8.88;;
22711;SDS011;11523;50.390;8.072;2022-11-25T05:29:22;13.60;;;8.30;;
22711;SDS011;11523;50.390;8.072;2022-11-25T05:31:47;14.35;;;8.00;;
22711;SDS011;11523;50.390;8.072;2022-11-25T05:34:13;11.50;;;7.75;;
22711;SDS011;11523;50.390;8.072;2022-11-25T05:36:39;13.00;;;8.13;;
22711;SDS011;11523;50.390;8.072;2022-11-25T05:39:05;12.27;;;7.72;;
22711;SDS011;11523;50.390;8.072;2022-11-25T05:41:31;11.68;;;8.02;;
22711;SDS011;11523;50.390;8.072;2022-11-25T05:43:57;17.00;;;8.55;;
22711;SDS011;11523;50.390;8.072;2022-11-25T05:46:23;15.60;;;8.45;;
22711;SDS011;11523;50.390;8.072;2022-11-25T05:48:55;19.10;;;8.48;;
22711;SDS011;11523;50.390;8.072;2022-11-25T05:51:22;14.88;;;8.70;;
22711;SDS011;11523;50.390;8.072;2022-11-25T05:53:48;14.20;;;8.00;;
22711;SDS011;11523;50.390;8.072;2022-11-25T05:56:14;16.73;;;10.07;;
22711;SDS011;11523;50.390;8.072;2022-11-25T05:58:40;18.20;;;8.68;;
22711;SDS011;11523;50.390;8.072;2022-11-25T06:01:07;14.23;;;8.95;;
22711;SDS011;11523;50.390;8.072;2022-11-25T06:03:33;13.40;;;8.57;;
22711;SDS011;11523;50.390;8.072;2022-11-25T06:05:59;14.07;;;8.30;;
22711;SDS011;11523;50.390;8.072;2022-11-25T06:08:25;13.52;;;8.23;;
22711;SDS011;11523;50.390;8.072;2022-11-25T06:10:52;17.20;;;8.82;;
22711;SDS011;11523;50.390;8.072;2022-11-25T06:13:18;15.27;;;7.90;;
22711;SDS011;11523;50.390;8.072;2022-11-25T06:15:44;11.68;;;7.82;;
22711;SDS011;11523;50.390;8.072;2022-11-25T06:18:11;14.82;;;8.30;;
22711;SDS011;11523;50.390;8.072;2022-11-25T06:20:37;14.75;;;7.30;;
22711;SDS011;11523;50.390;8.072;2022-11-25T06:23:04;14.48;;;7.88;;
22711;SDS011;11523;50.390;8.072;2022-11-25T06:25:30;11.10;;;7.32;;
22711;SDS011;11523;50.390;8.072;2022-11-25T06:27:56;17.52;;;8.38;;
22711;SDS011;11523;50.390;8.072;2022-11-25T06:30:22;14.23;;;8.07;;
22711;SDS011;11523;50.390;8.072;2022-11-25T06:32:49;16.35;;;8.18;;
22711;SDS011;11523;50.390;8.072;2022-11-25T06:35:15;14.48;;;7.72;;
22711;SDS011;11523;50.390;8.072;2022-11-25T06:37:41;11.80;;;7.55;;
22711;SDS011;11523;50.390;8.072;2022-11-25T06:40:07;16.95;;;8.23;;
22711;SDS011;11523;50.390;8.072;2022-11-25T06:42:33;17.13;;;8.70;;
22711;SDS011;11523;50.390;8.072;2022-11-25T06:44:59;16.58;;;8.77;;
22711;SDS011;11523;50.390;8.072;2022-11-25T06:47:25;17.15;;;8.68;;
22711;SDS011;11523;50.390;8.072;2022-11-25T06:49:51;14.15;;;8.27;;
22711;SDS011;11523;50.390;8.072;2022-11-25T06:52:17;16.10;;;9.32;;
22711;SDS011;11523;50.390;8.072;2022-11-25T06:54:43;17.48;;;10.32;;
22711;SDS011;11523;50.390;8.072;2022-11-25T06:57:10;22.20;;;11.15;;
22711;SDS011;11523;50.390;8.072;2022-11-25T06:59:36;21.73;;;10.98;;
22711;SDS011;11523;50.390;8.072;2022-11-25T07:02:02;21.95;;;10.65;;
22711;SDS011;11523;50.390;8.072;2022-11-25T07:04:28;24.63;;;10.27;;
22711;SDS011;11523;50.390;8.072;2022-11-25T07:06:54;17.92;;;10.40;;
22711;SDS011;11523;50.390;8.072;2022-11-25T07:09:20;19.35;;;10.60;;
22711;SDS011;11523;50.390;8.072;2022-11-25T07:11:46;17.70;;;9.57;;
22711;SDS011;11523;50.390;8.072;2022-11-25T07:14:13;18.92;;;10.93;;
22711;SDS011;11523;50.390;8.072;2022-11-25T07:16:40;21.63;;;11.57;;
22711;SDS011;11523;50.390;8.072;2022-11-25T07:19:06;16.55;;;11.10;;
22711;SDS011;11523;50.390;8.072;2022-11-25T07:21:33;21.08;;;12.07;;
22711;SDS011;11523;50.390;8.072;2022-11-25T07:24:02;23.20;;;11.13;;
22711;SDS011;11523;50.390;8.072;2022-11-25T07:26:29;19.38;;;11.18;;
22711;SDS011;11523;50.390;8.072;2022-11-25T07:28:59;18.95;;;10.55;;
22711;SDS011;11523;50.390;8.072;2022-11-25T07:31:26;24.35;;;10.30;;
22711;SDS011;11523;50.390;8.072;2022-11-25T07:33:53;19.30;;;11.02;;
22711;SDS011;11523;50.390;8.072;2022-11-25T07:36:20;18.55;;;9.98;;
22711;SDS011;11523;50.390;8.072;2022-11-25T07:38:46;20.40;;;10.27;;
22711;SDS011;11523;50.390;8.072;2022-11-25T07:41:13;16.98;;;9.68;;
22711;SDS011;11523;50.390;8.072;2022-11-25T07:43:42;17.70;;;9.98;;
22711;SDS011;11523;50.390;8.072;2022-11-25T07:48:34;19.20;;;10.00;;
22711;SDS011;11523;50.390;8.072;2022-11-25T07:51:00;15.40;;;9.65;;
22711;SDS011;11523;50.390;8.072;2022-11-25T07:53:26;19.95;;;10.02;;
22711;SDS011;11523;50.390;8.072;2022-11-25T07:55:52;18.63;;;10.10;;
22711;SDS011;11523;50.390;8.072;2022-11-25T07:58:18;16.75;;;9.75;;
22711;SDS011;11523;50.390;8.072;2022-11-25T08:00:44;16.63;;;9.73;;
22711;SDS011;11523;50.390;8.072;2022-11-25T08:03:10;21.13;;;9.88;;
22711;SDS011;11523;50.390;8.072;2022-11-25T08:05:36;20.10;;;10.50;;
22711;SDS011;11523;50.390;8.072;2022-11-25T08:08:02;17.42;;;9.63;;
22711;SDS011;11523;50.390;8.072;2022-11-25T08:10:28;25.20;;;11.00;;
22711;SDS011;11523;50.390;8.072;2022-11-25T08:12:54;27.15;;;11.00;;
22711;SDS011;11523;50.390;8.072;2022-11-25T08:15:19;20.27;;;10.88;;
22711;SDS011;11523;50.390;8.072;2022-11-25T08:17:45;16.10;;;9.27;;
22711;SDS011;11523;50.390;8.072;2022-11-25T08:20:14;22.55;;;11.13;;
22711;SDS011;11523;50.390;8.072;2022-11-25T08:22:40;20.52;;;10.75;;
22711;SDS011;11523;50.390;8.072;2022-11-25T08:25:06;21.38;;;10.07;;
22711;SDS011;11523;50.390;8.072;2022-11-25T08:27:32;23.38;;;11.25;;
22711;SDS011;11523;50.390;8.072;2022-11-25T08:29:58;24.33;;;10.35;;
22711;SDS011;11523;50.390;8.072;2022-11-25T08:32:24;17.23;;;9.73;;
22711;SDS011;11523;50.390;8.072;2022-11-25T08:34:50;21.65;;;10.18;;
22711;SDS011;11523;50.390;8.072;2022-11-25T08:37:16;21.50;;;10.32;;
22711;SDS011;11523;50.390;8.072;2022-11-25T08:39:42;19.10;;;10.35;;
22711;SDS011;11523;50.390;8.072;2022-11-25T08:42:07;18.83;;;9.27;;
22711;SDS011;11523;50.390;8.072;2022-11-25T08:44:34;24.58;;;10.13;;
22711;SDS011;11523;50.390;8.072;2022-11-25T08:47:00;17.38;;;10.25;;
22711;SDS011;11523;50.390;8.072;2022-11-25T08:49:26;22.20;;;10.60;;
22711;SDS011;11523;50.390;8.072;2022-11-25T08:51:54;22.75;;;10.48;;
22711;SDS011;11523;50.390;8.072;2022-11-25T08:54:20;24.58;;;10.68;;
22711;SDS011;11523;50.390;8.072;2022-11-25T08:56:46;20.00;;;10.82;;
22711;SDS011;11523;50.390;8.072;2022-11-25T08:59:12;25.27;;;11.32;;
22711;SDS011;11523;50.390;8.072;2022-11-25T09:01:38;21.88;;;11.30;;
22711;SDS011;11523;50.390;8.072;2022-11-25T09:04:03;24.70;;;13.38;;
22711;SDS011;11523;50.390;8.072;2022-11-25T09:06:29;26.77;;;14.43;;
22711;SDS011;11523;50.390;8.072;2022-11-25T09:08:56;22.48;;;13.35;;
22711;SDS011;11523;50.390;8.072;2022-11-25T09:11:23;20.05;;;12.57;;
22711;SDS011;11523;50.390;8.072;2022-11-25T09:13:49;23.00;;;12.57;;
22711;SDS011;11523;50.390;8.072;2022-11-25T09:16:15;23.35;;;13.50;;
22711;SDS011;11523;50.390;8.072;2022-11-25T09:18:41;25.10;;;14.88;;
22711;SDS011;11523;50.390;8.072;2022-11-25T09:21:08;21.92;;;14.27;;
22711;SDS011;11523;50.390;8.072;2022-11-25T09:23:34;20.67;;;13.20;;
22711;SDS011;11523;50.390;8.072;2022-11-25T09:26:00;23.30;;;12.90;;
22711;SDS011;11523;50.390;8.072;2022-11-25T09:28:26;22.02;;;12.38;;
22711;SDS011;11523;50.390;8.072;2022-11-25T09:30:52;23.42;;;12.75;;
22711;SDS011;11523;50.390;8.072;2022-11-25T09:33:19;17.52;;;12.15;;
22711;SDS011;11523;50.390;8.072;2022-11-25T09:35:46;25.48;;;14.35;;
22711;SDS011;11523;50.390;8.072;2022-11-25T09:38:12;23.75;;;12.38;;
22711;SDS011;11523;50.390;8.072;2022-11-25T09:46:16;22.80;;;13.57;;
22711;SDS011;11523;50.390;8.072;2022-11-25T09:51:51;21.10;;;13.40;;
22711;SDS011;11523;50.390;8.072;2022-11-25T09:54:20;26.40;;;14.60;;
22711;SDS011;11523;50.390;8.072;2022-11-25T09:56:50;24.33;;;14.77;;
22711;SDS011;11523;50.390;8.072;2022-11-25T09:59:19;20.75;;;14.43;;
22711;SDS011;11523;50.390;8.072;2022-11-25T10:04:13;25.88;;;16.05;;
22711;SDS011;11523;50.390;8.072;2022-11-25T10:06:42;30.17;;;16.85;;
22711;SDS011;11523;50.390;8.072;2022-11-25T10:09:11;28.70;;;17.45;;
22711;SDS011;11523;50.390;8.072;2022-11-25T10:21:55;33.22;;;18.02;;
22711;SDS011;11523;50.390;8.072;2022-11-25T10:24:21;30.63;;;17.52;;
22711;SDS011;11523;50.390;8.072;2022-11-25T10:26:49;32.30;;;18.98;;
22711;SDS011;11523;50.390;8.072;2022-11-25T10:29:19;26.15;;;15.52;;
22711;SDS011;11523;50.390;8.072;2022-11-25T10:31:46;23.73;;;12.25;;
22711;SDS011;11523;50.390;8.072;2022-11-25T10:34:17;17.80;;;10.13;;
22711;SDS011;11523;50.390;8.072;2022-11-25T10:36:48;20.35;;;10.02;;
22711;SDS011;11523;50.390;8.072;2022-11-25T10:47:05;22.70;;;9.65;;
22711;SDS011;11523;50.390;8.072;2022-11-25T10:52:21;19.65;;;9.52;;
22711;SDS011;11523;50.390;8.072;2022-11-25T10:54:54;14.52;;;9.70;;
22711;SDS011;11523;50.390;8.072;2022-11-25T10:57:20;16.00;;;8.07;;
22711;SDS011;11523;50.390;8.072;2022-11-25T10:59:59;16.45;;;8.90;;
22711;SDS011;11523;50.390;8.072;2022-11-25T11:02:43;15.88;;;8.52;;
22711;SDS011;11523;50.390;8.072;2022-11-25T11:07:39;16.38;;;8.57;;
22711;SDS011;11523;50.390;8.072;2022-11-25T11:10:13;16.70;;;7.97;;
22711;SDS011;11523;50.390;8.072;2022-11-25T11:12:50;16.55;;;8.30;;
22711;SDS011;11523;50.390;8.072;2022-11-25T11:15:20;11.77;;;6.30;;
22711;SDS011;11523;50.390;8.072;2022-11-25T11:17:46;9.35;;;5.50;;
22711;SDS011;11523;50.390;8.072;2022-11-25T11:20:14;9.85;;;5.10;;
22711;SDS011;11523;50.390;8.072;2022-11-25T11:23:23;13.20;;;5.20;;
22711;SDS011;11523;50.390;8.072;2022-11-25T11:25:31;8.85;;;4.00;;
22711;SDS011;11523;50.390;8.072;2022-11-25T11:27:58;12.48;;;4.05;;
22711;SDS011;11523;50.390;8.072;2022-11-25T11:30:26;6.38;;;3.42;;
22711;SDS011;11523;50.390;8.072;2022-11-25T11:38:16;9.10;;;3.42;;
22711;SDS011;11523;50.390;8.072;2022-11-25T11:40:46;8.27;;;3.33;;
22711;SDS011;11523;50.390;8.072;2022-11-25T11:43:20;6.63;;;3.38;;
22711;SDS011;11523;50.390;8.072;2022-11-25T11:53:29;9.30;;;3.30;;
22711;SDS011;11523;50.390;8.072;2022-11-25T11:56:10;8.32;;;3.65;;
22711;SDS011;11523;50.390;8.072;2022-11-25T12:04:18;6.45;;;3.00;;
22711;SDS011;11523;50.390;8.072;2022-11-25T12:06:52;7.15;;;3.05;;
22711;SDS011;11523;50.390;8.072;2022-11-25T12:09:20;8.45;;;3.40;;
22711;SDS011;11523;50.390;8.072;2022-11-25T12:11:49;15.35;;;4.20;;
22711;SDS011;11523;50.390;8.072;2022-11-25T12:16:47;7.10;;;3.05;;
22711;SDS011;11523;50.390;8.072;2022-11-25T12:24:36;10.15;;;3.00;;
22711;SDS011;11523;50.390;8.072;2022-11-25T12:32:01;7.65;;;3.17;;
22711;SDS011;11523;50.390;8.072;2022-11-25T12:34:33;8.20;;;2.83;;
22711;SDS011;11523;50.390;8.072;2022-11-25T12:37:03;8.50;;;2.78;;
22711;SDS011;11523;50.390;8.072;2022-11-25T12:42:00;9.32;;;2.38;;
22711;SDS011;11523;50.390;8.072;2022-11-25T12:44:34;10.02;;;2.47;;
22711;SDS011;11523;50.390;8.072;2022-11-25T12:47:06;14.20;;;2.88;;
22711;SDS011;11523;50.390;8.072;2022-11-25T12:49:39;8.65;;;2.58;;
22711;SDS011;11523;50.390;8.072;2022-11-25T12:52:18;8.27;;;2.55;;
22711;SDS011;11523;50.390;8.072;2022-11-25T13:08:14;5.32;;;2.28;;
22711;SDS011;11523;50.390;8.072;2022-11-25T13:10:46;9.77;;;2.67;;
22711;SDS011;11523;50.390;8.072;2022-11-25T13:13:23;7.32;;;2.35;;
22711;SDS011;11523;50.390;8.072;2022-11-25T13:15:51;6.15;;;2.55;;
22711;SDS011;11523;50.390;8.072;2022-11-25T13:18:19;7.32;;;2.65;;
22711;SDS011;11523;50.390;8.072;2022-11-25T13:20:47;12.27;;;4.28;;
22711;SDS011;11523;50.390;8.072;2022-11-25T13:25:43;11.02;;;4.20;;
22711;SDS011;11523;50.390;8.072;2022-11-25T13:35:49;8.75;;;2.85;;
22711;SDS011;11523;50.390;8.072;2022-11-25T13:43:23;13.05;;;5.18;;
22711;SDS011;11523;50.390;8.072;2022-11-25T13:45:49;11.55;;;3.88;;
22711;SDS011;11523;50.390;8.072;2022-11-25T13:50:45;7.22;;;2.10;;
22711;SDS011;11523;50.390;8.072;2022-11-25T13:53:21;8.00;;;2.53;;
22711;SDS011;11523;50.390;8.072;2022-11-25T13:55:48;9.35;;;2.50;;
22711;SDS011;11523;50.390;8.072;2022-11-25T13:58:17;8.20;;;2.58;;
22711;SDS011;11523;50.390;8.072;2022-11-25T14:13:16;9.95;;;3.67;;
22711;SDS011;11523;50.390;8.072;2022-11-25T14:20:38;11.57;;;3.45;;
22711;SDS011;11523;50.390;8.072;2022-11-25T14:25:50;9.65;;;2.80;;
22711;SDS011;11523;50.390;8.072;2022-11-25T14:28:20;8.68;;;2.72;;
22711;SDS011;11523;50.390;8.072;2022-11-25T14:30:49;10.80;;;3.55;;
22711;SDS011;11523;50.390;8.072;2022-11-25T14:33:17;11.07;;;4.15;;
22711;SDS011;11523;50.390;8.072;2022-11-25T14:35:47;14.38;;;3.92;;
22711;SDS011;11523;50.390;8.072;2022-11-25T14:38:16;14.95;;;4.53;;
22711;SDS011;11523;50.390;8.072;2022-11-25T14:40:47;13.13;;;4.43;;
22711;SDS011;11523;50.390;8.072;2022-11-25T14:43:16;13.32;;;4.40;;
22711;SDS011;11523;50.390;8.072;2022-11-25T14:45:43;13.70;;;4.13;;
22711;SDS011;11523;50.390;8.072;2022-11-25T14:48:16;10.38;;;3.58;;
22711;SDS011;11523;50.390;8.072;2022-11-25T14:50:55;9.38;;;3.10;;
22711;SDS011;11523;50.390;8.072;2022-11-25T14:53:22;10.32;;;3.03;;
22711;SDS011;11523;50.390;8.072;2022-11-25T14:55:50;11.55;;;3.47;;
22711;SDS011;11523;50.390;8.072;2022-11-25T14:58:16;10.05;;;3.22;;
22711;SDS011;11523;50.390;8.072;2022-11-25T15:01:01;11.07;;;3.85;;
22711;SDS011;11523;50.390;8.072;2022-11-25T15:03:35;8.80;;;3.25;;
22711;SDS011;11523;50.390;8.072;2022-11-25T15:06:03;12.77;;;3.17;;
22711;SDS011;11523;50.390;8.072;2022-11-25T15:08:36;9.45;;;2.83;;
22711;SDS011;11523;50.390;8.072;2022-11-25T15:11:03;10.97;;;3.37;;
22711;SDS011;11523;50.390;8.072;2022-11-25T15:13:38;8.57;;;2.97;;
22711;SDS011;11523;50.390;8.072;2022-11-25T15:18:49;7.75;;;2.60;;
22711;SDS011;11523;50.390;8.072;2022-11-25T15:21:18;9.73;;;3.08;;
22711;SDS011;11523;50.390;8.072;2022-11-25T15:23:44;13.70;;;3.67;;
22711;SDS011;11523;50.390;8.072;2022-11-25T15:26:15;10.18;;;3.47;;
22711;SDS011;11523;50.390;8.072;2022-11-25T15:28:41;9.18;;;3.85;;
22711;SDS011;11523;50.390;8.072;2022-11-25T15:31:14;11.10;;;3.65;;
22711;SDS011;11523;50.390;8.072;2022-11-25T15:33:41;8.70;;;3.50;;
22711;SDS011;11523;50.390;8.072;2022-11-25T15:36:07;10.55;;;4.03;;
22711;SDS011;11523;50.390;8.072;2022-11-25T15:41:05;10.43;;;3.75;;
22711;SDS011;11523;50.390;8.072;2022-11-25T15:43:39;9.15;;;3.72;;
22711;SDS011;11523;50.390;8.072;2022-11-25T15:46:09;11.80;;;3.92;;
22711;SDS011;11523;50.390;8.072;2022-11-25T15:48:42;11.15;;;4.25;;
22711;SDS011;11523;50.390;8.072;2022-11-25T15:51:19;10.70;;;4.10;;
22711;SDS011;11523;50.390;8.072;2022-11-25T15:53:49;8.52;;;3.63;;
22711;SDS011;11523;50.390;8.072;2022-11-25T15:56:18;13.27;;;3.70;;
22711;SDS011;11523;50.390;8.072;2022-11-25T15:58:51;9.40;;;3.50;;
22711;SDS011;11523;50.390;8.072;2022-11-25T16:03:44;9.65;;;3.50;;
22711;SDS011;11523;50.390;8.072;2022-11-25T16:08:52;10.63;;;3.42;;
22711;SDS011;11523;50.390;8.072;2022-11-25T16:11:18;6.47;;;2.90;;
22711;SDS011;11523;50.390;8.072;2022-11-25T16:13:45;12.40;;;3.80;;
22711;SDS011;11523;50.390;8.072;2022-11-25T16:16:19;9.32;;;4.47;;
22711;SDS011;11523;50.390;8.072;2022-11-25T16:21:27;9.52;;;4.03;;
22711;SDS011;11523;50.390;8.072;2022-11-25T16:23:59;10.93;;;4.22;;
22711;SDS011;11523;50.390;8.072;2022-11-25T16:26:37;11.18;;;4.28;;
22711;SDS011;11523;50.390;8.072;2022-11-25T16:29:12;10.63;;;4.13;;
22711;SDS011;11523;50.390;8.072;2022-11-25T16:31:39;12.88;;;4.90;;
22711;SDS011;11523;50.390;8.072;2022-11-25T16:34:15;10.98;;;3.63;;
22711;SDS011;11523;50.390;8.072;2022-11-25T16:36:41;13.32;;;4.18;;
22711;SDS011;11523;50.390;8.072;2022-11-25T16:39:07;9.40;;;3.38;;
22711;SDS011;11523;50.390;8.072;2022-11-25T16:41:33;13.25;;;4.15;;
22711;SDS011;11523;50.390;8.072;2022-11-25T16:44:00;16.73;;;5.78;;
22711;SDS011;11523;50.390;8.072;2022-11-25T16:46:26;13.93;;;6.13;;
22711;SDS011;11523;50.390;8.072;2022-11-25T16:48:52;12.38;;;5.35;;
22711;SDS011;11523;50.390;8.072;2022-11-25T16:51:19;16.73;;;6.72;;
22711;SDS011;11523;50.390;8.072;2022-11-25T16:53:46;11.65;;;5.15;;
22711;SDS011;11523;50.390;8.072;2022-11-25T16:56:18;13.93;;;5.50;;
22711;SDS011;11523;50.390;8.072;2022-11-25T16:58:45;15.20;;;6.47;;
22711;SDS011;11523;50.390;8.072;2022-11-25T17:01:12;17.17;;;7.18;;
22711;SDS011;11523;50.390;8.072;2022-11-25T17:03:39;15.43;;;6.30;;
22711;SDS011;11523;50.390;8.072;2022-11-25T17:06:24;16.20;;;7.03;;
22711;SDS011;11523;50.390;8.072;2022-11-25T17:08:50;14.02;;;6.75;;
22711;SDS011;11523;50.390;8.072;2022-11-25T17:11:23;12.73;;;5.55;;
22711;SDS011;11523;50.390;8.072;2022-11-25T17:13:51;13.57;;;6.05;;
22711;SDS011;11523;50.390;8.072;2022-11-25T17:16:18;13.32;;;6.18;;
22711;SDS011;11523;50.390;8.072;2022-11-25T17:18:44;15.82;;;6.45;;
22711;SDS011;11523;50.390;8.072;2022-11-25T17:21:12;14.05;;;5.88;;
22711;SDS011;11523;50.390;8.072;2022-11-25T17:23:38;14.70;;;6.13;;
22711;SDS011;11523;50.390;8.072;2022-11-25T17:26:04;17.48;;;6.00;;
22711;SDS011;11523;50.390;8.072;2022-11-25T17:28:31;15.57;;;5.93;;
22711;SDS011;11523;50.390;8.072;2022-11-25T17:30:57;14.98;;;5.15;;
22711;SDS011;11523;50.390;8.072;2022-11-25T17:33:22;13.55;;;5.93;;
22711;SDS011;11523;50.390;8.072;2022-11-25T17:35:48;16.50;;;5.53;;
22711;SDS011;11523;50.390;8.072;2022-11-25T17:38:18;12.15;;;5.18;;
22711;SDS011;11523;50.390;8.072;2022-11-25T17:40:45;15.30;;;5.35;;
22711;SDS011;11523;50.390;8.072;2022-11-25T17:43:15;16.88;;;6.25;;
22711;SDS011;11523;50.390;8.072;2022-11-25T17:45:41;14.55;;;7.65;;
22711;SDS011;11523;50.390;8.072;2022-11-25T17:48:08;19.05;;;6.90;;
22711;SDS011;11523;50.390;8.072;2022-11-25T17:50:34;14.50;;;6.05;;
22711;SDS011;11523;50.390;8.072;2022-11-25T17:53:00;12.70;;;4.88;;
22711;SDS011;11523;50.390;8.072;2022-11-25T17:55:26;12.45;;;4.57;;
22711;SDS011;11523;50.390;8.072;2022-11-25T17:57:52;10.68;;;4.18;;
22711;SDS011;11523;50.390;8.072;2022-11-25T18:00:19;16.75;;;7.15;;
22711;SDS011;11523;50.390;8.072;2022-11-25T18:02:45;18.42;;;7.30;;
22711;SDS011;11523;50.390;8.072;2022-11-25T18:05:30;15.23;;;6.28;;
22711;SDS011;11523;50.390;8.072;2022-11-25T18:07:56;16.40;;;6.78;;
22711;SDS011;11523;50.390;8.072;2022-11-25T18:10:23;17.02;;;6.60;;
22711;SDS011;11523;50.390;8.072;2022-11-25T18:12:50;16.52;;;6.85;;
22711;SDS011;11523;50.390;8.072;2022-11-25T18:15:21;12.25;;;6.70;;
22711;SDS011;11523;50.390;8.072;2022-11-25T18:17:48;16.13;;;6.65;;
22711;SDS011;11523;50.390;8.072;2022-11-25T18:20:18;16.45;;;6.85;;
22711;SDS011;11523;50.390;8.072;2022-11-25T18:22:44;26.73;;;9.05;;
22711;SDS011;11523;50.390;8.072;2022-11-25T18:25:14;22.73;;;9.60;;
22711;SDS011;11523;50.390;8.072;2022-11-25T18:27:41;15.23;;;8.43;;
22711;SDS011;11523;50.390;8.072;2022-11-25T18:30:14;27.58;;;8.43;;
22711;SDS011;11523;50.390;8.072;2022-11-25T18:32:41;21.63;;;7.82;;
22711;SDS011;11523;50.390;8.072;2022-11-25T18:35:13;18.63;;;8.32;;
22711;SDS011;11523;50.390;8.072;2022-11-25T18:37:39;13.35;;;7.22;;
22711;SDS011;11523;50.390;8.072;2022-11-25T18:40:05;15.18;;;7.55;;
22711;SDS011;11523;50.390;8.072;2022-11-25T18:42:32;13.02;;;6.28;;
22711;SDS011;11523;50.390;8.072;2022-11-25T18:44:57;13.55;;;6.80;;
22711;SDS011;11523;50.390;8.072;2022-11-25T18:47:23;11.32;;;6.18;;
22711;SDS011;11523;50.390;8.072;2022-11-25T18:49:49;10.20;;;6.03;;
22711;SDS011;11523;50.390;8.072;2022-11-25T18:52:15;11.75;;;5.97;;
22711;SDS011;11523;50.390;8.072;2022-11-25T18:54:41;20.67;;;6.45;;
22711;SDS011;11523;50.390;8.072;2022-11-25T18:57:14;25.50;;;9.20;;
22711;SDS011;11523;50.390;8.072;2022-11-25T18:59:40;21.33;;;9.48;;
22711;SDS011;11523;50.390;8.072;2022-11-25T19:02:13;19.67;;;9.60;;
22711;SDS011;11523;50.390;8.072;2022-11-25T19:04:40;22.52;;;11.10;;
22711;SDS011;11523;50.390;8.072;2022-11-25T19:07:06;26.23;;;11.13;;
22711;SDS011;11523;50.390;8.072;2022-11-25T19:09:32;19.65;;;8.85;;
22711;SDS011;11523;50.390;8.072;2022-11-25T19:11:58;12.50;;;6.20;;
22711;SDS011;11523;50.390;8.072;2022-11-25T19:16:51;12.77;;;6.45;;
22711;SDS011;11523;50.390;8.072;2022-11-25T19:19:17;14.93;;;6.85;;
22711;SDS011;11523;50.390;8.072;2022-11-25T19:21:43;14.63;;;7.05;;
22711;SDS011;11523;50.390;8.072;2022-11-25T19:24:13;19.27;;;8.70;;
22711;SDS011;11523;50.390;8.072;2022-11-25T19:26:50;20.23;;;8.93;;
22711;SDS011;11523;50.390;8.072;2022-11-25T19:29:18;19.10;;;8.50;;
22711;SDS011;11523;50.390;8.072;2022-11-25T19:31:45;20.73;;;8.80;;
22711;SDS011;11523;50.390;8.072;2022-11-25T19:34:20;16.17;;;9.13;;
22711;SDS011;11523;50.390;8.072;2022-11-25T19:36:47;16.55;;;8.32;;
22711;SDS011;11523;50.390;8.072;2022-11-25T19:39:14;14.75;;;7.90;;
22711;SDS011;11523;50.390;8.072;2022-11-25T19:41:41;20.90;;;8.73;;
22711;SDS011;11523;50.390;8.072;2022-11-25T19:44:07;18.02;;;8.98;;
22711;SDS011;11523;50.390;8.072;2022-11-25T19:46:33;18.50;;;9.45;;
22711;SDS011;11523;50.390;8.072;2022-11-25T19:49:00;19.85;;;9.18;;
22711;SDS011;11523;50.390;8.072;2022-11-25T19:51:28;14.75;;;8.45;;
22711;SDS011;11523;50.390;8.072;2022-11-25T19:53:56;18.48;;;8.85;;
22711;SDS011;11523;50.390;8.072;2022-11-25T19:56:22;16.75;;;8.30;;
22711;SDS011;11523;50.390;8.072;2022-11-25T19:58:51;18.60;;;8.35;;
22711;SDS011;11523;50.390;8.072;2022-11-25T20:01:17;18.90;;;8.68;;
22711;SDS011;11523;50.390;8.072;2022-11-25T20:03:44;16.90;;;8.65;;
22711;SDS011;11523;50.390;8.072;2022-11-25T20:06:15;19.65;;;8.93;;
22711;SDS011;11523;50.390;8.072;2022-11-25T20:08:42;15.02;;;8.90;;
22711;SDS011;11523;50.390;8.072;2022-11-25T20:11:14;20.60;;;9.95;;
22711;SDS011;11523;50.390;8.072;2022-11-25T20:13:41;22.58;;;10.90;;
22711;SDS011;11523;50.390;8.072;2022-11-25T20:16:16;22.20;;;13.82;;
22711;SDS011;11523;50.390;8.072;2022-11-25T20:18:43;22.70;;;12.30;;
22711;SDS011;11523;50.390;8.072;2022-11-25T20:21:13;20.15;;;13.00;;
22711;SDS011;11523;50.390;8.072;2022-11-25T20:23:41;19.52;;;12.45;;
22711;SDS011;11523;50.390;8.072;2022-11-25T20:26:09;24.10;;;12.48;;
22711;SDS011;11523;50.390;8.072;2022-11-25T20:28:40;24.58;;;12.80;;
22711;SDS011;11523;50.390;8.072;2022-11-25T20:31:07;25.98;;;13.15;;
22711;SDS011;11523;50.390;8.072;2022-11-25T20:33:33;24.48;;;12.25;;
22711;SDS011;11523;50.390;8.072;2022-11-25T20:36:03;25.10;;;12.70;;
22711;SDS011;11523;50.390;8.072;2022-11-25T20:38:30;21.83;;;13.00;;
22711;SDS011;11523;50.390;8.072;2022-11-25T20:40:57;19.95;;;12.65;;
22711;SDS011;11523;50.390;8.072;2022-11-25T20:43:34;21.33;;;13.27;;
22711;SDS011;11523;50.390;8.072;2022-11-25T20:46:01;19.00;;;12.70;;
22711;SDS011;11523;50.390;8.072;2022-11-25T20:48:27;20.63;;;12.13;;
22711;SDS011;11523;50.390;8.072;2022-11-25T20:50:54;17.80;;;12.05;;
22711;SDS011;11523;50.390;8.072;2022-11-25T20:53:20;18.40;;;11.13;;
22711;SDS011;11523;50.390;8.072;2022-11-25T20:55:47;15.80;;;10.70;;
22711;SDS011;11523;50.390;8.072;2022-11-25T21:00:42;19.23;;;10.40;;
22711;SDS011;11523;50.390;8.072;2022-11-25T21:03:15;16.35;;;9.77;;
22711;SDS011;11523;50.390;8.072;2022-11-25T21:05:41;17.88;;;10.13;;
22711;SDS011;11523;50.390;8.072;2022-11-25T21:08:14;15.10;;;9.50;;
22711;SDS011;11523;50.390;8.072;2022-11-25T21:10:43;18.65;;;8.75;;
22711;SDS011;11523;50.390;8.072;2022-11-25T21:13:13;15.52;;;9.10;;
22711;SDS011;11523;50.390;8.072;2022-11-25T21:15:40;22.02;;;10.10;;
22711;SDS011;11523;50.390;8.072;2022-11-25T21:18:06;17.33;;;9.65;;
22711;SDS011;11523;50.390;8.072;2022-11-25T21:20:32;18.88;;;9.70;;
22711;SDS011;11523;50.390;8.072;2022-11-25T21:22:57;17.58;;;9.02;;
22711;SDS011;11523;50.390;8.072;2022-11-25T21:25:29;19.45;;;9.15;;
22711;SDS011;11523;50.390;8.072;2022-11-25T21:27:55;18.67;;;9.68;;
22711;SDS011;11523;50.390;8.072;2022-11-25T21:30:28;17.50;;;10.68;;
22711;SDS011;11523;50.390;8.072;2022-11-25T21:32:56;23.27;;;12.33;;
22711;SDS011;11523;50.390;8.072;2022-11-25T21:35:29;20.13;;;11.20;;
22711;SDS011;11523;50.390;8.072;2022-11-25T21:37:55;18.65;;;10.90;;
22711;SDS011;11523;50.390;8.072;2022-11-25T21:40:25;16.85;;;9.70;;
22711;SDS011;11523;50.390;8.072;2022-11-25T21:42:52;15.82;;;9.70;;
22711;SDS011;11523;50.390;8.072;2022-11-25T21:45:18;18.27;;;8.80;;
22711;SDS011;11523;50.390;8.072;2022-11-25T21:47:44;11.98;;;7.70;;
22711;SDS011;11523;50.390;8.072;2022-11-25T21:50:14;15.38;;;7.43;;
22711;SDS011;11523;50.390;8.072;2022-11-25T21:52:40;14.18;;;7.82;;